Terminal Aerodrome Forecast
Issued by NWS

Home | Current Version | Previous Version | Text Only | Print | Product List | Glossary On
Versions: 1 2 3 4 5 6 7 8 9 10 11 12
000
FTUS45 KRIW 181100
TAFRKS
TAF
KRKS 181131Z 1812/1912 21014KT P6SM FEW120 BKN250
     FM181700 23020G30KT P6SM SCT120 BKN200
     FM182300 26020G30KT P6SM SCT080 BKN120
     FM190300 29011KT P6SM SCT100 BKN200=

USA.gov is the U.S. government's official web portal to all federal, state and local government web resources and services.